Carnival Miracle — H3VS — position and weather

sailwx.info

Track history (hours):
 
Tides and Currents Weather Stations Pressure Air Temp Water Temp Dewpoint Dewpoint Depression Visibility Wind Speed Wind Dir Waves Ship Positions

Carnival Miracle

Operator: Carnival Cruise Lines

Last reported at 2017-Oct-18 15:00 UTC. Time now 2017-Oct-22 07:59 UTC.
Position N 23°42' W 148°18'.

Type: Ship. MMSI: 35437000.

Wind from 030 at 12 knots

Barometer 1019.0 mb
Air temperature 23.0 ° C
Visibility: greater than 10.8 NM
Dewpoint 18.5 ° C
Water temperature 26.0 ° C

Date/timePositionNaut miles runAvg speedWind from/ knotsBaromVisibWave heightAir tempDewpointWater temp
2017-Oct-18 15:00N 23°42' W 148°18'50721.1 030 / 121019.010.8 23.018.526.0
2017-Oct-17 15:00N 26°30' W 139°30'61223.5 130 / 121019.010.8 22.019.024.0
2017-Oct-16 13:00N 20°24' W 130°36'63163.1 060 / 131022.010.8 19.015.921.0
2017-Oct-16 03:00N 30°24' W 127°00'19719.5 050 / 101021.0 5.4 20.018.520.0
2017-Oct-15 16:55N 31°33' W 123°25'920.0
2017-Oct-15 16:30N 31°36' W 123°15'1020.0
2017-Oct-15 15:58N 31°39' W 123°04'4820.0
2017-Oct-15 13:36N 31°55' W 122°11'3019.8
2017-Oct-15 12:04N 32°05' W 121°37'573.6
2017-Oct-15 12:00N 32°00' W 121°36'843.1 350 / 101019.010.8 18.016.420.0
2017-Oct-15 11:49N 32°07' W 121°32'1119.7
2017-Oct-15 11:16N 32°10' W 121°20'519.8
2017-Oct-15 11:00N 32°12' W 121°14'1019.6
2017-Oct-15 10:30N 32°15' W 121°03'1019.6
2017-Oct-15 10:00N 32°19' W 120°52'1019.5
2017-Oct-15 09:30N 32°22' W 120°41'919.4
2017-Oct-15 09:00N 32°25' W 120°31'1019.6
2017-Oct-15 08:30N 32°28' W 120°20'1019.7
2017-Oct-15 08:00N 32°32' W 120°09'1219.6
2017-Oct-15 07:25N 32°36' W 119°56'819.6
2017-Oct-15 06:59N 32°38' W 119°47'1019.9
2017-Oct-15 06:30N 32°45' W 119°38'1020.0
2017-Oct-15 06:00N 32°52' W 119°29'1019.8
2017-Oct-15 05:30N 32°58' W 119°21'1020.1
2017-Oct-15 05:00N 33°05' W 119°12'1020.2
2017-Oct-15 04:30N 33°12' W 119°03'1020.3
2017-Oct-15 04:00N 33°19' W 118°54'1020.1
2017-Oct-15 03:30N 33°26' W 118°46'1019.6
2017-Oct-15 03:00N 33°33' W 118°37'1019.4
2017-Oct-15 02:30N 33°34' W 118°25'714.4
2017-Oct-15 02:00N 33°34' W 118°17'611.9
2017-Oct-15 01:30N 33°39' W 118°12'510.6
2017-Oct-15 01:00N 33°44' W 118°11'1 1.9
2017-Oct-15 00:29N 33°45' W 118°11'0 0.0
2017-Oct-14 23:59N 33°45' W 118°11'0 0.0
2017-Oct-14 23:29N 33°45' W 118°11'0 0.0
2017-Oct-14 22:58N 33°45' W 118°11'0 0.0
2017-Oct-14 22:28N 33°45' W 118°11'0 0.0
2017-Oct-14 21:58N 33°45' W 118°11'0 0.0
2017-Oct-14 21:28N 33°45' W 118°11'0 0.0
2017-Oct-14 21:00N 33°45' W 118°11'0 0.0
2017-Oct-14 20:30N 33°45' W 118°11'0 0.0
2017-Oct-14 20:00N 33°45' W 118°11'0 0.0
2017-Oct-14 19:30N 33°45' W 118°11'0 0.0
2017-Oct-14 19:00N 33°45' W 118°11'0 0.0
2017-Oct-14 18:29N 33°45' W 118°11'0 0.0
2017-Oct-14 17:59N 33°45' W 118°11'0 0.0
2017-Oct-14 17:29N 33°45' W 118°11'0 0.0
2017-Oct-14 16:59N 33°45' W 118°11'0 0.0
2017-Oct-14 16:28N 33°45' W 118°11'0 0.0
2017-Oct-14 15:58N 33°45' W 118°11'0 0.0
2017-Oct-14 15:28N 33°45' W 118°11'0 0.0
2017-Oct-14 14:58N 33°45' W 118°11'0 0.0
2017-Oct-14 14:28N 33°45' W 118°11'0 0.0
2017-Oct-14 14:00N 33°45' W 118°11'0 0.8
2017-Oct-14 13:29N 33°45' W 118°11'4 8.7
2017-Oct-14 13:00N 33°40' W 118°11'4 8.7
2017-Oct-14 12:30N 33°36' W 118°10'4 8.8
2017-Oct-14 12:00N 33°32' W 118°08'5 9.0
2017-Oct-14 11:30N 33°28' W 118°06'612.0
2017-Oct-14 11:00N 33°22' W 118°04'612.6
2017-Oct-14 10:30N 33°16' W 118°00'815.0
2017-Oct-14 10:00N 33°10' W 117°57'918.0
2017-Oct-14 09:30N 33°01' W 117°53'918.1
2017-Oct-14 09:00N 32°53' W 117°50'918.1
2017-Oct-14 08:30N 32°44' W 117°47'918.2
2017-Oct-14 08:00N 32°35' W 117°44'918.3
2017-Oct-14 07:31N 32°27' W 117°39'918.2
2017-Oct-14 07:00N 32°18' W 117°35'1018.2
2017-Oct-14 06:29N 32°09' W 117°31'1218.0
2017-Oct-14 05:48N 31°58' W 117°26'517.8
2017-Oct-14 05:30N 31°53' W 117°24'34819.9
2017-Oct-13 12:00N 26°42' W 114°24'8518.6 320 / 131015.010.8 21.019.522.0
2017-Oct-13 07:27N 25°36' W 113°25'38719.9
2017-Oct-12 12:00N 21°42' W 107°48'130 5.4 150 / 121012.010.8 29.025.030.0
2017-Oct-11 12:00N 20°36' W 105°48'24710.3 150 / 111009.010.8 28.025.330.0
2017-Oct-10 12:00N 22°42' W 109°36'42 1.9 010 / 61012.010.8 28.025.329.0
2017-Oct-09 14:18N 23°03' W 110°15'28920.9
2017-Oct-09 00:26N 26°19' W 114°09'1021.9
2017-Oct-09 00:00N 26°27' W 114°16'1723.0
2017-Oct-08 23:16N 26°39' W 114°28'619.7
2017-Oct-08 22:58N 26°44' W 114°32'1021.9
2017-Oct-08 22:30N 26°52' W 114°40'1121.7
2017-Oct-08 22:00N 27°00' W 114°47'1221.7
2017-Oct-08 21:27N 27°09' W 114°56'1021.7
2017-Oct-08 20:59N 27°17' W 115°03'1121.7
2017-Oct-08 20:30N 27°25' W 115°11'1521.9
2017-Oct-08 19:49N 27°37' W 115°22'822.0
2017-Oct-08 19:27N 27°43' W 115°28'1222.0
2017-Oct-08 18:54N 27°52' W 115°36'922.7
2017-Oct-08 18:31N 27°59' W 115°43'  
Track history (hours):
 
Tides and Currents Weather Stations Pressure Air Temp Water Temp Dewpoint Dewpoint Depression Visibility Wind Speed Wind Dir Waves Ship Positions

Carnival Miracle

Operator: Carnival Cruise Lines

Last reported at 2017-Oct-18 15:00 UTC. Time now 2017-Oct-22 07:59 UTC.
Position N 23°42' W 148°18'.

Type: Ship. MMSI: 35437000.

Wind from 030 at 12 knots

Barometer 1019.0 mb
Air temperature 23.0 ° C
Visibility: greater than 10.8 NM
Dewpoint 18.5 ° C
Water temperature 26.0 ° C

Date/timePositionNaut miles runAvg speedWind from/ knotsBaromVisibWave heightAir tempDewpointWater temp
2017-Oct-18 15:00N 23°42' W 148°18'50721.1 030 / 121019.010.8 23.018.526.0
2017-Oct-17 15:00N 26°30' W 139°30'61223.5 130 / 121019.010.8 22.019.024.0
2017-Oct-16 13:00N 20°24' W 130°36'63163.1 060 / 131022.010.8 19.015.921.0
2017-Oct-16 03:00N 30°24' W 127°00'19719.5 050 / 101021.0 5.4 20.018.520.0
2017-Oct-15 16:55N 31°33' W 123°25'920.0
2017-Oct-15 16:30N 31°36' W 123°15'1020.0
2017-Oct-15 15:58N 31°39' W 123°04'4820.0
2017-Oct-15 13:36N 31°55' W 122°11'3019.8
2017-Oct-15 12:04N 32°05' W 121°37'573.6
2017-Oct-15 12:00N 32°00' W 121°36'843.1 350 / 101019.010.8 18.016.420.0
2017-Oct-15 11:49N 32°07' W 121°32'1119.7
2017-Oct-15 11:16N 32°10' W 121°20'519.8
2017-Oct-15 11:00N 32°12' W 121°14'1019.6
2017-Oct-15 10:30N 32°15' W 121°03'1019.6
2017-Oct-15 10:00N 32°19' W 120°52'1019.5
2017-Oct-15 09:30N 32°22' W 120°41'919.4
2017-Oct-15 09:00N 32°25' W 120°31'1019.6
2017-Oct-15 08:30N 32°28' W 120°20'1019.7
2017-Oct-15 08:00N 32°32' W 120°09'1219.6
2017-Oct-15 07:25N 32°36' W 119°56'819.6
2017-Oct-15 06:59N 32°38' W 119°47'1019.9
2017-Oct-15 06:30N 32°45' W 119°38'1020.0
2017-Oct-15 06:00N 32°52' W 119°29'1019.8
2017-Oct-15 05:30N 32°58' W 119°21'1020.1
2017-Oct-15 05:00N 33°05' W 119°12'1020.2
2017-Oct-15 04:30N 33°12' W 119°03'1020.3
2017-Oct-15 04:00N 33°19' W 118°54'1020.1
2017-Oct-15 03:30N 33°26' W 118°46'1019.6
2017-Oct-15 03:00N 33°33' W 118°37'1019.4
2017-Oct-15 02:30N 33°34' W 118°25'714.4
2017-Oct-15 02:00N 33°34' W 118°17'611.9
2017-Oct-15 01:30N 33°39' W 118°12'510.6
2017-Oct-15 01:00N 33°44' W 118°11'1 1.9
2017-Oct-15 00:29N 33°45' W 118°11'0 0.0
2017-Oct-14 23:59N 33°45' W 118°11'0 0.0
2017-Oct-14 23:29N 33°45' W 118°11'0 0.0
2017-Oct-14 22:58N 33°45' W 118°11'0 0.0
2017-Oct-14 22:28N 33°45' W 118°11'0 0.0
2017-Oct-14 21:58N 33°45' W 118°11'0 0.0
2017-Oct-14 21:28N 33°45' W 118°11'0 0.0
2017-Oct-14 21:00N 33°45' W 118°11'0 0.0
2017-Oct-14 20:30N 33°45' W 118°11'0 0.0
2017-Oct-14 20:00N 33°45' W 118°11'0 0.0
2017-Oct-14 19:30N 33°45' W 118°11'0 0.0
2017-Oct-14 19:00N 33°45' W 118°11'0 0.0
2017-Oct-14 18:29N 33°45' W 118°11'0 0.0
2017-Oct-14 17:59N 33°45' W 118°11'0 0.0
2017-Oct-14 17:29N 33°45' W 118°11'0 0.0
2017-Oct-14 16:59N 33°45' W 118°11'0 0.0
2017-Oct-14 16:28N 33°45' W 118°11'0 0.0
2017-Oct-14 15:58N 33°45' W 118°11'0 0.0
2017-Oct-14 15:28N 33°45' W 118°11'0 0.0
2017-Oct-14 14:58N 33°45' W 118°11'0 0.0
2017-Oct-14 14:28N 33°45' W 118°11'0 0.0
2017-Oct-14 14:00N 33°45' W 118°11'0 0.8
2017-Oct-14 13:29N 33°45' W 118°11'4 8.7
2017-Oct-14 13:00N 33°40' W 118°11'4 8.7
2017-Oct-14 12:30N 33°36' W 118°10'4 8.8
2017-Oct-14 12:00N 33°32' W 118°08'5 9.0
2017-Oct-14 11:30N 33°28' W 118°06'612.0
2017-Oct-14 11:00N 33°22' W 118°04'612.6
2017-Oct-14 10:30N 33°16' W 118°00'815.0
2017-Oct-14 10:00N 33°10' W 117°57'918.0
2017-Oct-14 09:30N 33°01' W 117°53'918.1
2017-Oct-14 09:00N 32°53' W 117°50'918.1
2017-Oct-14 08:30N 32°44' W 117°47'918.2
2017-Oct-14 08:00N 32°35' W 117°44'918.3
2017-Oct-14 07:31N 32°27' W 117°39'918.2
2017-Oct-14 07:00N 32°18' W 117°35'1018.2
2017-Oct-14 06:29N 32°09' W 117°31'1218.0
2017-Oct-14 05:48N 31°58' W 117°26'517.8
2017-Oct-14 05:30N 31°53' W 117°24'34819.9
2017-Oct-13 12:00N 26°42' W 114°24'8518.6 320 / 131015.010.8 21.019.522.0
2017-Oct-13 07:27N 25°36' W 113°25'38719.9
2017-Oct-12 12:00N 21°42' W 107°48'130 5.4 150 / 121012.010.8 29.025.030.0
2017-Oct-11 12:00N 20°36' W 105°48'24710.3 150 / 111009.010.8 28.025.330.0
2017-Oct-10 12:00N 22°42' W 109°36'42 1.9 010 / 61012.010.8 28.025.329.0
2017-Oct-09 14:18N 23°03' W 110°15'28920.9
2017-Oct-09 00:26N 26°19' W 114°09'1021.9
2017-Oct-09 00:00N 26°27' W 114°16'1723.0
2017-Oct-08 23:16N 26°39' W 114°28'619.7
2017-Oct-08 22:58N 26°44' W 114°32'1021.9
2017-Oct-08 22:30N 26°52' W 114°40'1121.7
2017-Oct-08 22:00N 27°00' W 114°47'1221.7
2017-Oct-08 21:27N 27°09' W 114°56'1021.7
2017-Oct-08 20:59N 27°17' W 115°03'1121.7
2017-Oct-08 20:30N 27°25' W 115°11'1521.9
2017-Oct-08 19:49N 27°37' W 115°22'822.0
2017-Oct-08 19:27N 27°43' W 115°28'1222.0
2017-Oct-08 18:54N 27°52' W 115°36'922.7
2017-Oct-08 18:31N 27°59' W 115°43'  

Dump ship's entire track history